createdAt,value
2017-05-24T00:00:38.232Z,19.11
2017-05-24T00:01:18.764Z,19.18
2017-05-24T00:01:59.238Z,19.14
2017-05-24T00:02:39.757Z,19.04
2017-05-24T00:03:20.229Z,18.99
2017-05-24T00:04:00.724Z,19.11
2017-05-24T00:04:41.250Z,19.02
2017-05-24T00:05:21.702Z,19
2017-05-24T00:06:02.830Z,19.06
2017-05-24T00:06:43.327Z,19.08
2017-05-24T00:07:23.818Z,18.92
2017-05-24T00:08:05.051Z,18.98
2017-05-24T00:08:45.530Z,18.98
2017-05-24T00:09:26.031Z,18.94
2017-05-24T00:10:06.531Z,18.94
2017-05-24T00:10:47.010Z,18.94
2017-05-24T00:11:27.505Z,18.92
2017-05-24T00:12:08.009Z,18.82
2017-05-24T00:12:48.496Z,18.87
2017-05-24T00:13:28.979Z,18.82
2017-05-24T00:14:10.053Z,18.78
2017-05-24T00:14:50.539Z,18.69
2017-05-24T00:15:31.050Z,18.76
2017-05-24T00:16:11.527Z,18.76
2017-05-24T00:16:52.025Z,18.78
2017-05-24T00:17:32.520Z,18.72
2017-05-24T00:18:13.649Z,18.82
2017-05-24T00:18:54.845Z,18.73
2017-05-24T00:19:35.325Z,18.73
2017-05-24T00:20:15.814Z,18.8
2017-05-24T00:20:56.304Z,18.87
2017-05-24T00:21:36.795Z,18.78
2017-05-24T00:22:17.291Z,18.76
2017-05-24T00:22:57.759Z,18.78
2017-05-24T00:24:50.316Z,18.8
2017-05-24T00:25:32.276Z,18.7
2017-05-24T00:26:12.780Z,18.67
2017-05-24T00:26:53.792Z,18.67
2017-05-24T00:27:34.276Z,18.8
2017-05-24T00:28:14.769Z,18.63
2017-05-24T00:28:55.268Z,18.73
2017-05-24T00:29:35.748Z,18.7
2017-05-24T00:30:16.238Z,18.7
2017-05-24T00:30:56.721Z,18.63
2017-05-24T00:31:37.215Z,18.55
2017-05-24T00:32:17.715Z,18.58
2017-05-24T00:32:58.214Z,18.62
2017-05-24T00:33:38.695Z,18.6
2017-05-24T00:34:19.184Z,18.57
2017-05-24T00:34:59.662Z,18.58
2017-05-24T00:35:40.149Z,18.62
2017-05-24T00:36:20.635Z,18.55
2017-05-24T00:37:01.104Z,18.51
2017-05-24T00:37:41.590Z,18.51
2017-05-24T00:38:22.119Z,18.51
2017-05-24T00:39:02.609Z,18.54
2017-05-24T00:39:43.105Z,18.45
2017-05-24T00:40:23.587Z,18.54
2017-05-24T00:41:05.010Z,18.51
2017-05-24T00:41:45.505Z,18.42
2017-05-24T00:42:25.990Z,18.36
2017-05-24T00:43:06.486Z,18.36
2017-05-24T00:43:46.986Z,18.35
2017-05-24T00:44:27.453Z,18.3
2017-05-24T00:45:07.940Z,18.27
2017-05-24T00:45:48.419Z,18.32
2017-05-24T00:46:28.909Z,18.26
2017-05-24T00:47:09.393Z,18.12
2017-05-24T00:47:49.895Z,18.08
2017-05-24T00:48:30.388Z,18.1
2017-05-24T00:49:10.875Z,18.11
2017-05-24T00:49:51.367Z,18.1
2017-05-24T00:50:31.865Z,18.14
2017-05-24T00:51:12.351Z,18.08
2017-05-24T00:51:53.613Z,18.05
2017-05-24T00:52:34.088Z,18.17
2017-05-24T00:53:14.543Z,18.08
2017-05-24T00:53:55.042Z,17.97
2017-05-24T00:54:35.537Z,18.08
2017-05-24T00:55:16.019Z,17.99
2017-05-24T00:55:56.516Z,18.02
2017-05-24T00:56:36.999Z,18.12
2017-05-24T00:57:17.488Z,18.11
2017-05-24T00:57:57.981Z,17.95
2017-05-24T00:58:38.452Z,17.96
2017-05-24T00:59:18.933Z,17.97
2017-05-24T00:59:59.428Z,17.96
2017-05-24T01:00:39.952Z,17.95
2017-05-24T01:01:20.450Z,17.95
2017-05-24T01:02:00.956Z,17.96
2017-05-24T01:02:41.442Z,17.93
2017-05-24T01:04:39.108Z,17.97
2017-05-24T01:05:19.540Z,17.95
2017-05-24T01:06:00.033Z,17.97
2017-05-24T01:06:40.549Z,17.89
2017-05-24T01:07:21.035Z,17.87
2017-05-24T01:08:01.539Z,17.93
2017-05-24T01:08:42.036Z,17.87
2017-05-24T01:09:22.518Z,17.79
2017-05-24T01:10:03.010Z,17.64
2017-05-24T01:10:43.500Z,17.84
2017-05-24T01:11:23.997Z,17.75
2017-05-24T01:12:05.474Z,17.78
2017-05-24T01:13:58.031Z,17.56
2017-05-24T01:14:38.497Z,17.51
2017-05-24T01:15:18.984Z,17.62
2017-05-24T01:15:59.481Z,17.58
2017-05-24T01:16:40.005Z,17.71
2017-05-24T01:17:21.406Z,17.72
2017-05-24T01:18:01.910Z,17.66
2017-05-24T01:18:42.391Z,17.54
2017-05-24T01:19:24.716Z,17.56
2017-05-24T01:20:05.203Z,17.62
2017-05-24T01:20:45.692Z,17.51
2017-05-24T01:21:27.077Z,17.54
2017-05-24T01:22:07.571Z,17.54
2017-05-24T01:22:48.054Z,17.56
2017-05-24T01:23:28.545Z,17.41
2017-05-24T01:24:09.049Z,17.46
2017-05-24T01:24:49.532Z,17.48
2017-05-24T01:25:30.072Z,17.41
2017-05-24T01:26:10.513Z,17.49
2017-05-24T01:26:50.993Z,17.51
2017-05-24T01:27:31.479Z,17.44
2017-05-24T01:28:11.963Z,17.48
2017-05-24T01:28:52.454Z,17.48
2017-05-24T01:29:32.933Z,17.49
2017-05-24T01:30:13.434Z,17.4
2017-05-24T01:30:53.937Z,17.34
2017-05-24T01:31:35.413Z,17.33
2017-05-24T01:32:15.902Z,17.34
2017-05-24T01:32:56.400Z,17.38
2017-05-24T01:33:36.901Z,17.33
2017-05-24T01:34:17.371Z,17.31
2017-05-24T01:34:57.872Z,17.36
2017-05-24T01:35:38.366Z,17.31
2017-05-24T01:36:18.851Z,17.22
2017-05-24T01:37:56.196Z,17.22
2017-05-24T01:38:36.699Z,17.23
2017-05-24T01:39:17.168Z,17.16
2017-05-24T01:39:57.662Z,17.16
2017-05-24T01:40:38.127Z,17.19
2017-05-24T01:41:18.609Z,17.18
2017-05-24T01:41:59.107Z,17.16
2017-05-24T01:42:40.480Z,17.18
2017-05-24T01:43:21.665Z,17.16
2017-05-24T01:44:02.145Z,17.14
2017-05-24T01:44:42.643Z,17.18
2017-05-24T01:45:23.135Z,17.18
2017-05-24T01:46:03.626Z,17.14
2017-05-24T01:46:44.118Z,17.11
2017-05-24T01:47:24.620Z,17.15
2017-05-24T01:48:05.099Z,17.14
2017-05-24T01:48:45.590Z,17.12
2017-05-24T01:49:26.080Z,17.12
2017-05-24T01:50:06.554Z,17.15
2017-05-24T01:50:47.069Z,17.12
2017-05-24T01:51:27.574Z,17.14
2017-05-24T01:52:08.076Z,17.14
2017-05-24T01:52:48.574Z,17.08
2017-05-24T01:53:29.067Z,17.23
2017-05-24T01:54:09.562Z,17.08
2017-05-24T01:54:50.044Z,17.12
2017-05-24T01:55:30.612Z,17.21
2017-05-24T01:56:11.100Z,17.18
2017-05-24T01:56:51.587Z,17.14
2017-05-24T01:57:32.069Z,17.08
2017-05-24T01:58:14.482Z,17.12
2017-05-24T01:58:54.978Z,17.18
2017-05-24T01:59:35.468Z,17.03
2017-05-24T02:00:15.939Z,17.03
2017-05-24T02:00:56.432Z,17
2017-05-24T02:01:36.905Z,17.04
2017-05-24T02:02:17.391Z,16.96
2017-05-24T02:02:57.880Z,16.91
2017-05-24T02:03:38.379Z,16.91
2017-05-24T02:04:18.884Z,16.93
2017-05-24T02:04:59.380Z,17.01
2017-05-24T02:05:40.583Z,16.96
2017-05-24T02:06:21.073Z,16.93
2017-05-24T02:07:01.556Z,16.88
2017-05-24T02:08:54.839Z,16.86
2017-05-24T02:09:35.320Z,16.96
2017-05-24T02:10:15.817Z,16.89
2017-05-24T02:10:56.297Z,16.93
2017-05-24T02:12:48.813Z,16.91
2017-05-24T02:13:29.308Z,16.86
2017-05-24T02:14:10.641Z,16.88
2017-05-24T02:14:51.125Z,16.93
2017-05-24T02:17:03.855Z,16.86
2017-05-24T02:17:44.338Z,16.78
2017-05-24T02:19:57.041Z,16.71
2017-05-24T02:20:37.530Z,16.76
2017-05-24T02:21:18.004Z,16.79
2017-05-24T02:21:58.488Z,16.71
2017-05-24T02:22:38.975Z,16.78
2017-05-24T02:23:20.022Z,16.78
2017-05-24T02:24:00.509Z,16.75
2017-05-24T02:24:40.987Z,16.76
2017-05-24T02:25:22.248Z,16.75
2017-05-24T02:26:02.736Z,16.68
2017-05-24T02:26:43.228Z,16.61
2017-05-24T02:27:23.721Z,16.58
2017-05-24T02:28:04.204Z,16.63
2017-05-24T02:28:44.697Z,16.71
2017-05-24T02:29:25.191Z,16.67
2017-05-24T02:30:05.679Z,16.67
2017-05-24T02:30:46.159Z,16.63
2017-05-24T02:31:26.647Z,16.67
2017-05-24T02:32:07.143Z,16.61
2017-05-24T02:32:48.625Z,16.67
2017-05-24T02:33:29.109Z,16.6
2017-05-24T02:34:09.609Z,16.58
2017-05-24T02:34:50.093Z,16.58
2017-05-24T02:35:30.609Z,16.57
2017-05-24T02:36:11.114Z,16.49
2017-05-24T02:36:51.598Z,16.52
2017-05-24T02:37:32.074Z,16.5
2017-05-24T02:38:12.560Z,16.49
2017-05-24T02:38:53.051Z,16.43
2017-05-24T02:39:34.252Z,16.49
2017-05-24T02:40:14.747Z,16.45
2017-05-24T02:40:55.245Z,16.45
2017-05-24T02:41:35.734Z,16.42
2017-05-24T02:42:16.235Z,16.48
2017-05-24T02:42:56.714Z,16.38
2017-05-24T02:43:37.206Z,16.48
2017-05-24T02:44:17.702Z,16.41
2017-05-24T02:44:59.046Z,16.41
2017-05-24T02:45:39.539Z,16.34
2017-05-24T02:46:20.029Z,16.41
2017-05-24T02:47:01.250Z,16.38
2017-05-24T02:47:41.742Z,16.41
2017-05-24T02:48:22.232Z,16.31
2017-05-24T02:49:02.722Z,16.33
2017-05-24T02:49:43.215Z,16.33
2017-05-24T02:50:23.702Z,16.38
2017-05-24T02:51:04.191Z,16.3
2017-05-24T02:51:44.689Z,16.31
2017-05-24T02:52:25.174Z,16.3
2017-05-24T02:53:05.667Z,16.25
2017-05-24T02:53:46.146Z,16.27
2017-05-24T02:54:26.645Z,16.23
2017-05-24T02:55:07.147Z,16.15
2017-05-24T02:55:47.644Z,16.12
2017-05-24T02:56:28.137Z,16.09
2017-05-24T02:57:08.628Z,16.2
2017-05-24T02:57:49.129Z,16.17
2017-05-24T02:58:29.610Z,16.14
2017-05-24T02:59:10.100Z,16.23
2017-05-24T02:59:50.617Z,16.23
2017-05-24T03:00:31.092Z,16.24
2017-05-24T03:01:11.585Z,16.31
2017-05-24T03:01:52.074Z,16.3
2017-05-24T03:02:32.575Z,16.35
2017-05-24T03:03:13.067Z,16.33
2017-05-24T03:03:53.563Z,16.38
2017-05-24T03:04:34.748Z,16.35
2017-05-24T03:05:15.260Z,16.38
2017-05-24T03:05:55.747Z,16.25
2017-05-24T03:06:36.242Z,16.14
2017-05-24T03:07:16.732Z,16.14
2017-05-24T03:07:57.191Z,16.17
2017-05-24T03:08:37.673Z,16.28
2017-05-24T03:09:18.161Z,16.3
2017-05-24T03:09:58.665Z,16.31
2017-05-24T03:10:39.150Z,16.28
2017-05-24T03:11:19.633Z,16.35
2017-05-24T03:12:00.127Z,16.3
2017-05-24T03:12:40.598Z,16.41
2017-05-24T03:13:21.096Z,16.35
2017-05-24T03:14:02.373Z,16.41
2017-05-24T03:14:42.868Z,16.38
2017-05-24T03:15:23.351Z,16.39
2017-05-24T03:16:03.848Z,16.38
2017-05-24T03:16:44.316Z,16.3
2017-05-24T03:17:24.807Z,16.41
2017-05-24T03:18:05.278Z,16.34
2017-05-24T03:18:45.758Z,16.33
2017-05-24T03:19:26.243Z,16.39
2017-05-24T03:20:06.723Z,16.34
2017-05-24T03:20:47.211Z,16.39
2017-05-24T03:21:27.699Z,16.49
2017-05-24T03:22:08.962Z,16.5
2017-05-24T03:22:49.456Z,16.41
2017-05-24T03:23:29.948Z,16.46
2017-05-24T03:24:10.415Z,16.33
2017-05-24T03:24:50.915Z,16.38
2017-05-24T03:25:31.405Z,16.33
2017-05-24T03:26:11.885Z,16.28
2017-05-24T03:26:52.456Z,16.33
2017-05-24T03:27:32.932Z,16.41
2017-05-24T03:28:13.410Z,16.35
2017-05-24T03:28:53.896Z,16.41
2017-05-24T03:30:51.548Z,16.43
2017-05-24T03:31:32.037Z,16.52
2017-05-24T03:32:12.522Z,16.39
2017-05-24T03:32:53.013Z,16.52
2017-05-24T03:33:33.518Z,16.49
2017-05-24T03:34:14.010Z,16.41
2017-05-24T03:34:54.486Z,16.49
2017-05-24T03:35:34.987Z,16.46
2017-05-24T03:36:15.482Z,16.46
2017-05-24T03:36:55.969Z,16.39
2017-05-24T03:37:36.464Z,16.34
2017-05-24T03:38:16.933Z,16.35
2017-05-24T03:38:57.452Z,16.46
2017-05-24T03:39:37.939Z,16.42
2017-05-24T03:40:18.433Z,16.49
2017-05-24T03:40:59.744Z,16.43
2017-05-24T03:41:40.241Z,16.34
2017-05-24T03:42:20.734Z,16.39
2017-05-24T03:43:01.859Z,16.34
2017-05-24T03:43:42.334Z,16.48
2017-05-24T03:44:22.822Z,16.34
2017-05-24T03:45:03.310Z,16.28
2017-05-24T03:45:43.783Z,16.35
2017-05-24T03:46:24.244Z,16.41
2017-05-24T03:47:04.738Z,16.41
2017-05-24T03:47:45.221Z,16.28
2017-05-24T03:48:25.697Z,16.28
2017-05-24T03:49:06.222Z,16.33
2017-05-24T03:49:46.711Z,16.43
2017-05-24T03:50:27.219Z,16.28
2017-05-24T03:51:07.715Z,16.38
2017-05-24T03:51:48.741Z,16.38
2017-05-24T03:52:29.231Z,16.27
2017-05-24T03:53:09.696Z,16.38
2017-05-24T03:53:50.203Z,16.38
2017-05-24T03:54:30.689Z,16.28
2017-05-24T03:55:11.175Z,16.39
2017-05-24T03:55:51.649Z,16.46
2017-05-24T03:56:32.125Z,16.33
2017-05-24T03:57:13.111Z,16.28
2017-05-24T03:59:00.591Z,16.28
2017-05-24T03:59:41.073Z,16.27
2017-05-24T04:00:21.555Z,16.25
2017-05-24T04:01:02.038Z,16.28
2017-05-24T04:01:42.516Z,16.39
2017-05-24T04:02:23.003Z,16.34
2017-05-24T04:03:03.489Z,16.34
2017-05-24T04:03:43.966Z,16.31
2017-05-24T04:04:24.451Z,16.25
2017-05-24T04:05:04.947Z,16.28
2017-05-24T04:05:46.128Z,16.38
2017-05-24T04:06:26.610Z,16.33
2017-05-24T04:07:07.102Z,16.34
2017-05-24T04:07:47.589Z,16.42
2017-05-24T04:08:29.045Z,16.35
2017-05-24T04:09:09.520Z,16.38
2017-05-24T04:09:50.019Z,16.33
2017-05-24T04:10:30.521Z,16.39
2017-05-24T04:11:11.024Z,16.33
2017-05-24T04:11:52.253Z,16.35
2017-05-24T04:12:33.266Z,16.33
2017-05-24T04:13:14.546Z,16.31
2017-05-24T04:13:55.029Z,16.25
2017-05-24T04:14:35.522Z,16.34
2017-05-24T04:15:16.872Z,16.34
2017-05-24T04:15:58.140Z,16.35
2017-05-24T04:16:38.645Z,16.3
2017-05-24T04:17:19.150Z,16.31
2017-05-24T04:17:59.620Z,16.38
2017-05-24T04:18:40.111Z,16.28
2017-05-24T04:19:20.613Z,16.34
2017-05-24T04:20:01.100Z,16.34
2017-05-24T04:20:41.595Z,16.48
2017-05-24T04:21:22.091Z,16.38
2017-05-24T04:22:02.567Z,16.46
2017-05-24T04:22:43.069Z,16.46
2017-05-24T04:23:23.558Z,16.52
2017-05-24T04:24:04.061Z,16.56
2017-05-24T04:24:44.544Z,16.5
2017-05-24T04:25:25.036Z,16.61
2017-05-24T04:26:05.529Z,16.68
2017-05-24T04:26:45.984Z,16.75
2017-05-24T04:27:26.484Z,16.81
2017-05-24T04:28:06.972Z,16.76
2017-05-24T04:28:47.454Z,16.85
2017-05-24T04:29:27.953Z,16.89
2017-05-24T04:30:08.411Z,16.82
2017-05-24T04:30:48.843Z,16.91
2017-05-24T04:31:30.046Z,16.91
2017-05-24T04:32:10.542Z,16.94
2017-05-24T04:32:51.015Z,17.04
2017-05-24T04:33:32.054Z,17
2017-05-24T04:34:13.570Z,17.07
2017-05-24T04:34:54.047Z,17.16
2017-05-24T04:35:34.539Z,17.14
2017-05-24T04:36:15.029Z,17.12
2017-05-24T04:36:55.507Z,17.26
2017-05-24T04:37:35.974Z,17.37
2017-05-24T04:38:16.481Z,17.34
2017-05-24T04:38:56.988Z,17.46
2017-05-24T04:40:34.357Z,17.68
2017-05-24T04:41:14.849Z,17.77
2017-05-24T04:42:52.175Z,18.07
2017-05-24T04:43:32.664Z,18.15
2017-05-24T04:44:13.222Z,18.21
2017-05-24T04:44:53.657Z,18.3
2017-05-24T04:45:34.145Z,18.54
2017-05-24T04:46:15.376Z,18.67
2017-05-24T04:46:55.883Z,18.69
2017-05-24T04:47:36.373Z,18.81
2017-05-24T04:48:16.861Z,18.78
2017-05-24T04:48:57.357Z,18.9
2017-05-24T04:49:37.840Z,19.1
2017-05-24T04:50:18.338Z,19.23
2017-05-24T04:50:58.838Z,19.18
2017-05-24T04:51:39.874Z,19.26
2017-05-24T04:52:20.365Z,19.36
2017-05-24T04:53:00.869Z,19.5
2017-05-24T04:53:41.352Z,19.68
2017-05-24T04:54:21.841Z,19.62
2017-05-24T04:55:02.337Z,19.69
2017-05-24T04:55:42.819Z,19.81
2017-05-24T04:56:23.318Z,19.87
2017-05-24T04:57:03.804Z,20.01
2017-05-24T04:57:44.297Z,20.16
2017-05-24T04:58:24.763Z,20.21
2017-05-24T04:59:05.258Z,20.23
2017-05-24T04:59:45.737Z,20.33
2017-05-24T05:00:26.230Z,20.51
2017-05-24T05:01:06.708Z,20.5
2017-05-24T05:01:47.204Z,20.5
2017-05-24T05:02:27.709Z,20.51
2017-05-24T05:03:08.200Z,20.48
2017-05-24T05:03:48.712Z,20.61
2017-05-24T05:04:29.757Z,20.66
2017-05-24T05:05:10.249Z,20.72
2017-05-24T05:05:50.747Z,20.92
2017-05-24T05:06:31.986Z,21.19
2017-05-24T05:07:12.500Z,21.29
2017-05-24T05:07:53.000Z,21.31
2017-05-24T05:08:33.505Z,21.31
2017-05-24T05:09:13.988Z,21.32
2017-05-24T05:09:54.490Z,21.4
2017-05-24T05:10:34.998Z,21.64
2017-05-24T05:12:32.675Z,22
2017-05-24T05:13:13.135Z,21.77
2017-05-24T05:13:53.639Z,21.75
2017-05-24T05:14:34.116Z,21.9
2017-05-24T05:15:14.605Z,22.14
2017-05-24T05:15:55.612Z,22.2
2017-05-24T05:16:36.106Z,22.31
2017-05-24T05:17:16.576Z,22.14
2017-05-24T05:17:58.032Z,22.09
2017-05-24T05:18:38.509Z,21.99
2017-05-24T05:19:19.005Z,21.98
2017-05-24T05:19:59.521Z,21.91
2017-05-24T05:20:39.999Z,21.61
2017-05-24T05:21:20.494Z,21.72
2017-05-24T05:22:01.000Z,21.84
2017-05-24T05:22:41.496Z,21.8
2017-05-24T05:23:21.997Z,21.9
2017-05-24T05:24:02.468Z,21.88
2017-05-24T05:24:42.955Z,21.61
2017-05-24T05:25:23.441Z,21.35
2017-05-24T05:26:03.953Z,21.37
2017-05-24T05:26:44.431Z,21.44
2017-05-24T05:27:24.930Z,21.38
2017-05-24T05:28:05.437Z,21.46
2017-05-24T05:28:45.935Z,21.62
2017-05-24T05:29:26.439Z,21.47
2017-05-24T05:30:06.940Z,21.62
2017-05-24T05:30:47.444Z,21.64
2017-05-24T05:31:27.933Z,21.61
2017-05-24T05:32:08.428Z,21.61
2017-05-24T05:32:48.919Z,21.64
2017-05-24T05:33:29.410Z,21.68
2017-05-24T05:34:10.829Z,21.64
2017-05-24T05:36:08.474Z,21.82
2017-05-24T05:36:48.929Z,21.99
2017-05-24T05:37:29.424Z,22.2
2017-05-24T05:38:09.917Z,21.9
2017-05-24T05:38:50.414Z,21.98
2017-05-24T05:39:30.908Z,22.22
2017-05-24T05:40:11.402Z,22.31
2017-05-24T05:40:51.907Z,22.45
2017-05-24T05:41:32.404Z,22.61
2017-05-24T05:42:12.915Z,22.67
2017-05-24T05:42:53.395Z,22.83
2017-05-24T05:43:33.878Z,22.92
2017-05-24T05:44:15.028Z,23.01
2017-05-24T05:44:55.535Z,23
2017-05-24T05:45:36.046Z,23.02
2017-05-24T05:46:16.488Z,22.24
2017-05-24T05:46:56.953Z,22.14
2017-05-24T05:47:37.514Z,21.92
2017-05-24T05:48:17.999Z,21.74
2017-05-24T05:48:58.455Z,21.47
2017-05-24T05:49:38.905Z,21.22
2017-05-24T05:50:19.395Z,21.28
2017-05-24T05:51:00.781Z,21.61
2017-05-24T05:51:41.250Z,22
2017-05-24T05:53:18.616Z,22.52
2017-05-24T05:53:59.073Z,22.58
2017-05-24T05:54:39.534Z,22.6
2017-05-24T05:55:20.036Z,22.35
2017-05-24T05:56:00.509Z,22.61
2017-05-24T05:56:41.978Z,22.88
2017-05-24T05:57:22.511Z,22.83
2017-05-24T05:58:03.009Z,23.16
2017-05-24T05:58:43.497Z,23.07
2017-05-24T05:59:24.014Z,22.85
2017-05-24T06:00:04.492Z,22.21
2017-05-24T06:00:45.035Z,21.98
2017-05-24T06:01:25.518Z,21.91
2017-05-24T06:02:06.004Z,21.28
2017-05-24T06:02:47.274Z,21.43
2017-05-24T06:03:27.732Z,21.42
2017-05-24T06:05:40.460Z,21.56
2017-05-24T06:06:21.018Z,22.06
2017-05-24T06:08:33.796Z,23
2017-05-24T06:09:14.258Z,23.35
2017-05-24T06:09:54.757Z,23.73
2017-05-24T06:10:35.215Z,23.72
2017-05-24T06:11:15.689Z,23.68
2017-05-24T06:11:56.166Z,23.4
2017-05-24T06:12:36.619Z,23.16
2017-05-24T06:13:17.082Z,22.9
2017-05-24T06:13:58.334Z,22.88
2017-05-24T06:14:38.797Z,23
2017-05-24T06:16:36.481Z,23.54
2017-05-24T06:17:16.906Z,23.73
2017-05-24T06:17:57.415Z,24.12
2017-05-24T06:18:37.902Z,24.47
2017-05-24T06:19:19.404Z,24.62
2017-05-24T06:19:59.910Z,24.77
2017-05-24T06:20:40.404Z,23.83
2017-05-24T06:21:20.875Z,23.16
2017-05-24T06:22:01.413Z,22.88
2017-05-24T06:22:41.922Z,23.16
2017-05-24T06:23:22.407Z,23.23
2017-05-24T06:24:02.902Z,22.9
2017-05-24T06:24:43.416Z,22.72
2017-05-24T06:25:23.911Z,23.35
2017-05-24T06:26:04.411Z,22.97
2017-05-24T06:26:44.920Z,23.23
2017-05-24T06:27:25.981Z,23.7
2017-05-24T06:28:06.485Z,23.55
2017-05-24T06:30:19.282Z,23.22
2017-05-24T06:31:00.442Z,23.13
2017-05-24T06:31:40.949Z,23.46
2017-05-24T06:32:21.440Z,23.98
2017-05-24T06:33:01.935Z,24.43
2017-05-24T06:33:42.431Z,24.34
2017-05-24T06:34:22.924Z,24.61
2017-05-24T06:35:03.405Z,25.06
2017-05-24T06:35:43.893Z,25.2
2017-05-24T06:36:24.431Z,24.31
2017-05-24T06:37:04.925Z,24.06
2017-05-24T06:37:45.426Z,23.95
2017-05-24T06:38:25.924Z,23.69
2017-05-24T06:39:06.407Z,23.75
2017-05-24T06:39:47.639Z,23.9
2017-05-24T06:40:28.127Z,24.39
2017-05-24T06:41:08.651Z,24.8
2017-05-24T06:41:49.141Z,25.32
2017-05-24T06:42:30.547Z,24.52
2017-05-24T06:43:11.040Z,23.84
2017-05-24T06:43:51.544Z,23.57
2017-05-24T06:44:32.049Z,23.88
2017-05-24T06:45:13.314Z,24.3
2017-05-24T06:45:53.844Z,24.49
2017-05-24T06:46:34.365Z,24.83
2017-05-24T06:47:14.863Z,25.18
2017-05-24T06:47:55.945Z,25.65
2017-05-24T06:48:36.424Z,26.01
2017-05-24T06:49:16.921Z,25.99
2017-05-24T06:49:57.424Z,25.52
2017-05-24T06:50:37.925Z,25.23
2017-05-24T06:51:19.320Z,24.96
2017-05-24T06:52:00.549Z,24.69
2017-05-24T06:52:42.042Z,25.1
2017-05-24T06:53:22.564Z,24.95
2017-05-24T06:54:03.647Z,25.13
2017-05-24T06:54:44.199Z,25.46
2017-05-24T06:55:24.694Z,25.54
2017-05-24T06:56:05.181Z,25.58
2017-05-24T06:56:45.677Z,25.75
2017-05-24T06:57:26.182Z,25.65
2017-05-24T06:58:06.675Z,25.72
2017-05-24T06:58:47.174Z,25.7
2017-05-24T06:59:27.674Z,25.55
2017-05-24T07:00:08.170Z,24.93
2017-05-24T07:00:48.672Z,24.93
2017-05-24T07:01:29.746Z,25.2
2017-05-24T07:02:10.221Z,25.51
2017-05-24T07:02:50.717Z,25.91
2017-05-24T07:03:31.263Z,25.88
2017-05-24T07:04:11.736Z,26.1
2017-05-24T07:04:52.241Z,25.21
2017-05-24T07:05:32.736Z,24.4
2017-05-24T07:06:13.256Z,23.73
2017-05-24T07:06:53.806Z,23.09
2017-05-24T07:07:34.321Z,22.85
2017-05-24T07:08:14.839Z,23.57
2017-05-24T07:08:55.334Z,23.65
2017-05-24T07:09:35.822Z,23.55
2017-05-24T07:10:16.298Z,23.79
2017-05-24T07:10:56.780Z,23.48
2017-05-24T07:11:38.157Z,23.4
2017-05-24T07:12:18.610Z,23.23
2017-05-24T07:12:59.109Z,23.35
2017-05-24T07:13:39.642Z,23.22
2017-05-24T07:14:20.129Z,23.31
2017-05-24T07:15:00.624Z,23.57
2017-05-24T07:15:41.147Z,23.61
2017-05-24T07:16:21.630Z,23.69
2017-05-24T07:17:02.136Z,24.25
2017-05-24T07:17:42.618Z,24.43
2017-05-24T07:18:23.104Z,24.69
2017-05-24T07:19:03.598Z,24.8
2017-05-24T07:19:44.101Z,25.03
2017-05-24T07:20:24.582Z,25.36
2017-05-24T07:21:05.086Z,25.39
2017-05-24T07:21:45.570Z,24.99
2017-05-24T07:22:26.069Z,24.81
2017-05-24T07:23:06.661Z,25.23
2017-05-24T07:23:47.176Z,25.5
2017-05-24T07:24:27.650Z,25.98
2017-05-24T07:25:08.133Z,25.99
2017-05-24T07:25:48.618Z,25.67
2017-05-24T07:26:29.106Z,25.73
2017-05-24T07:27:09.580Z,25.97
2017-05-24T07:27:50.129Z,26.28
2017-05-24T07:28:31.252Z,26.72
2017-05-24T07:29:11.775Z,27.31
2017-05-24T07:29:52.294Z,27.81
2017-05-24T07:30:32.812Z,27.9
2017-05-24T07:31:13.299Z,27.81
2017-05-24T07:31:53.816Z,27.6
2017-05-24T07:32:34.350Z,27.14
2017-05-24T07:33:14.845Z,26.55
2017-05-24T07:33:55.350Z,26.8
2017-05-24T07:34:35.851Z,27.31
2017-05-24T07:35:16.401Z,27.41
2017-05-24T07:35:56.887Z,26.81
2017-05-24T07:36:37.422Z,27.41
2017-05-24T07:37:17.930Z,27.78
2017-05-24T07:37:58.538Z,27.41
2017-05-24T07:38:39.007Z,26.63
2017-05-24T07:39:19.497Z,26.37
2017-05-24T07:39:59.960Z,25.83
2017-05-24T07:40:40.473Z,25.02
2017-05-24T07:41:20.936Z,24.46
2017-05-24T07:42:01.399Z,24.57
2017-05-24T07:44:14.155Z,25.6
2017-05-24T07:44:54.638Z,26.17
2017-05-24T07:45:35.127Z,26.94
2017-05-24T07:46:15.632Z,26.95
2017-05-24T07:46:56.200Z,26.4
2017-05-24T07:47:36.733Z,26.25
2017-05-24T07:48:17.230Z,26.51
2017-05-24T07:48:57.716Z,26.94
2017-05-24T07:49:38.217Z,27.14
2017-05-24T07:50:18.760Z,25.92
2017-05-24T07:50:59.920Z,26.07
2017-05-24T07:51:40.403Z,26.05
2017-05-24T07:52:21.052Z,25.73
2017-05-24T07:53:01.513Z,25.72
2017-05-24T07:53:42.002Z,25.6
2017-05-24T07:54:22.476Z,25.97
2017-05-24T07:55:03.682Z,25.61
2017-05-24T07:55:44.143Z,26.57
2017-05-24T07:56:24.652Z,27.29
2017-05-24T07:57:05.162Z,27.79
2017-05-24T07:57:47.190Z,28.44
2017-05-24T07:58:27.715Z,28.8
2017-05-24T07:59:08.210Z,29.3
2017-05-24T07:59:48.837Z,29.45
2017-05-24T08:00:29.394Z,28.67
2017-05-24T08:01:10.112Z,27.46
2017-05-24T08:01:50.661Z,27.62
2017-05-24T08:02:31.265Z,27.21
2017-05-24T08:03:11.846Z,27.41
2017-05-24T08:03:52.457Z,27.75
2017-05-24T08:04:33.046Z,27.67
2017-05-24T08:05:13.682Z,27.32
2017-05-24T08:05:54.951Z,27.59
2017-05-24T08:06:35.567Z,26.99
2017-05-24T08:07:16.184Z,27.59
2017-05-24T08:07:56.813Z,27.47
2017-05-24T08:08:37.418Z,27.24
2017-05-24T08:09:18.022Z,27.92
2017-05-24T08:09:58.690Z,28.59
2017-05-24T08:10:39.272Z,28.56
2017-05-24T08:11:19.872Z,28.03
2017-05-24T08:12:00.500Z,28.54
2017-05-24T08:12:41.077Z,28.73
2017-05-24T08:13:21.673Z,27.9
2017-05-24T08:14:03.199Z,27.25
2017-05-24T08:14:43.762Z,27.44
2017-05-24T08:15:24.368Z,28.4
2017-05-24T08:16:04.991Z,28.03
2017-05-24T08:16:45.622Z,28.03
2017-05-24T08:17:26.281Z,28.43
2017-05-24T08:18:06.951Z,28.85
2017-05-24T08:18:48.309Z,28.77
2017-05-24T08:19:28.860Z,28.29
2017-05-24T08:20:09.480Z,28.41
2017-05-24T08:20:50.551Z,28.43
2017-05-24T08:21:31.133Z,28.7
2017-05-24T08:22:11.699Z,28.64
2017-05-24T08:22:52.303Z,28.52
2017-05-24T08:23:32.947Z,28.74
2017-05-24T08:24:13.611Z,29.19
2017-05-24T08:24:54.383Z,29.95
2017-05-24T08:25:35.844Z,30.01
2017-05-24T08:26:16.478Z,30.24
2017-05-24T08:26:57.105Z,29.82
2017-05-24T08:27:37.725Z,28.31
2017-05-24T08:28:18.281Z,27.99
2017-05-24T08:28:58.905Z,27.96
2017-05-24T08:29:39.421Z,28.14
2017-05-24T08:30:19.943Z,28.31
2017-05-24T08:31:00.942Z,28.58
2017-05-24T08:31:41.452Z,28.88
2017-05-24T08:32:22.019Z,27.99
2017-05-24T08:33:02.516Z,27.87
2017-05-24T08:33:43.847Z,27.75
2017-05-24T08:34:24.354Z,27.43
2017-05-24T08:35:04.859Z,27.04
2017-05-24T08:35:45.373Z,27.29
2017-05-24T08:36:25.929Z,27.34
2017-05-24T08:37:07.262Z,26.62
2017-05-24T08:37:47.812Z,26.81
2017-05-24T08:38:28.339Z,27.44
2017-05-24T08:39:08.834Z,28.41
2017-05-24T08:39:49.347Z,29.23
2017-05-24T08:40:30.456Z,29.08
2017-05-24T08:41:10.942Z,28.95
2017-05-24T08:41:51.377Z,29.76
2017-05-24T08:42:31.903Z,29.8
2017-05-24T08:43:12.378Z,28.33
2017-05-24T08:43:52.882Z,28.98
2017-05-24T08:44:34.062Z,29.06
2017-05-24T08:46:21.575Z,29.18
2017-05-24T08:47:02.141Z,29.7
2017-05-24T08:47:42.621Z,30.11
2017-05-24T08:48:23.110Z,29.9
2017-05-24T08:49:04.254Z,29.98
2017-05-24T08:49:44.770Z,30.79
2017-05-24T08:50:25.309Z,31.19
2017-05-24T08:51:05.870Z,30.01
2017-05-24T08:51:46.387Z,29.04
2017-05-24T08:52:26.880Z,28.96
2017-05-24T08:53:07.350Z,29.73
2017-05-24T08:53:47.884Z,30.23
2017-05-24T08:54:28.318Z,30.22
2017-05-24T08:55:09.003Z,31.16
2017-05-24T08:55:49.554Z,31.61
2017-05-24T08:56:29.986Z,31.91
2017-05-24T08:57:10.572Z,31.72
2017-05-24T08:57:51.635Z,31.46
2017-05-24T08:58:32.128Z,31.46
2017-05-24T08:59:12.630Z,31.36
2017-05-24T08:59:53.147Z,30.64
2017-05-24T09:00:33.691Z,30.83
2017-05-24T09:01:14.209Z,29.9
2017-05-24T09:01:54.712Z,28.54
2017-05-24T09:02:35.208Z,27.28
2017-05-24T09:03:15.682Z,26.95
2017-05-24T09:03:56.178Z,26.67
2017-05-24T09:04:37.279Z,26.97
2017-05-24T09:05:17.779Z,26.12
2017-05-24T09:05:58.269Z,27.4
2017-05-24T09:06:39.262Z,28
2017-05-24T09:08:52.129Z,30.42
2017-05-24T09:09:32.516Z,31.36
2017-05-24T09:10:13.011Z,32.62
2017-05-24T09:10:53.490Z,33.37
2017-05-24T09:11:33.985Z,33.38
2017-05-24T09:12:14.460Z,33.28
2017-05-24T09:12:54.959Z,32.55